Pflugerville's Hourly Summary for Wednesday, May 9, 2018
Hour Temp
(f)
RH
(%)
Solar Rad.
(MJ/m2)
Rainfall
(in)
Wind
(mph)
5/9/2018 12:00 AM 69 55 0 0 5.36
5/9/2018 1:00 AM 67 61 0 0 4.86
5/9/2018 2:00 AM 66 70 0 0 8.08
5/9/2018 3:00 AM 65 81 0 0 8.49
5/9/2018 4:00 AM 63 99 0 0 5.91
5/9/2018 5:00 AM 63 100 0 0 5.94
5/9/2018 6:00 AM 65 100 0 0 8.05
5/9/2018 7:00 AM 65 100 0.01 0 7.42
5/9/2018 8:00 AM 64 100 0.19 0 8.01
5/9/2018 9:00 AM 65 100 0.5 0 8.99
5/9/2018 10:00 AM 69 100 0.84 0 11.13
5/9/2018 11:00 AM 72 94 2.11 0 13.88
5/9/2018 12:00 PM 75 73 2.87 0 11.69
5/9/2018 1:00 PM 78 60 3.31 0 10.7
5/9/2018 2:00 PM 80 47 3.45 0 10.39
5/9/2018 3:00 PM 83 43 3.34 0 10.76
5/9/2018 4:00 PM 84 41 2.1 0 9.88
5/9/2018 5:00 PM 84 37 0.89 0 9.06
5/9/2018 6:00 PM 85 36 1.69 0 8.52
5/9/2018 7:00 PM 84 35 0.82 0 8.94
5/9/2018 8:00 PM 82 35 0.4 0 7.39
5/9/2018 9:00 PM 77 37 0.02 0 5.09
5/9/2018 10:00 PM 74 42 0 0 7.23
5/9/2018 11:00 PM 72 45 0 0 8.43
Data Summary 72 66 22.54 0.00 8.51